sensor_id;sensor_type;location;lat;lon;timestamp;temperature;humidity
70076;DHT22;63241;51.056;3.698;2023-04-24T00:00:12;10.40;99.90
70076;DHT22;63241;51.056;3.698;2023-04-24T00:02:41;10.40;99.90
70076;DHT22;63241;51.056;3.698;2023-04-24T00:05:11;10.30;99.90
70076;DHT22;63241;51.056;3.698;2023-04-24T00:07:39;10.40;99.90
70076;DHT22;63241;51.056;3.698;2023-04-24T00:10:07;10.40;99.90
70076;DHT22;63241;51.056;3.698;2023-04-24T00:12:35;10.50;99.90
70076;DHT22;63241;51.056;3.698;2023-04-24T00:15:03;10.50;99.90
70076;DHT22;63241;51.056;3.698;2023-04-24T00:17:31;10.50;99.90
70076;DHT22;63241;51.056;3.698;2023-04-24T00:19:59;10.50;99.90
70076;DHT22;63241;51.056;3.698;2023-04-24T00:22:28;10.50;99.90
70076;DHT22;63241;51.056;3.698;2023-04-24T00:24:56;10.40;99.90
70076;DHT22;63241;51.056;3.698;2023-04-24T00:27:24;10.40;99.90
70076;DHT22;63241;51.056;3.698;2023-04-24T00:29:52;10.40;99.90
70076;DHT22;63241;51.056;3.698;2023-04-24T00:32:19;10.40;99.90
70076;DHT22;63241;51.056;3.698;2023-04-24T00:34:47;10.30;99.90
70076;DHT22;63241;51.056;3.698;2023-04-24T00:37:15;10.30;99.90
70076;DHT22;63241;51.056;3.698;2023-04-24T00:39:42;10.30;99.90
70076;DHT22;63241;51.056;3.698;2023-04-24T00:42:10;10.30;99.90
70076;DHT22;63241;51.056;3.698;2023-04-24T00:44:38;10.20;99.90
70076;DHT22;63241;51.056;3.698;2023-04-24T00:47:06;10.20;99.90
70076;DHT22;63241;51.056;3.698;2023-04-24T00:49:34;10.10;99.90
70076;DHT22;63241;51.056;3.698;2023-04-24T00:52:02;10.20;99.90
70076;DHT22;63241;51.056;3.698;2023-04-24T00:54:31;10.20;99.90
70076;DHT22;63241;51.056;3.698;2023-04-24T00:56:59;10.30;99.90
70076;DHT22;63241;51.056;3.698;2023-04-24T00:59:27;10.20;99.90
70076;DHT22;63241;51.056;3.698;2023-04-24T01:01:56;10.30;99.90
70076;DHT22;63241;51.056;3.698;2023-04-24T01:04:24;10.20;99.90
70076;DHT22;63241;51.056;3.698;2023-04-24T01:06:53;10.30;99.90
70076;DHT22;63241;51.056;3.698;2023-04-24T01:09:23;10.30;99.90
70076;DHT22;63241;51.056;3.698;2023-04-24T01:11:51;10.30;99.90
70076;DHT22;63241;51.056;3.698;2023-04-24T01:14:19;10.20;99.90
70076;DHT22;63241;51.056;3.698;2023-04-24T01:16:47;10.20;99.90
70076;DHT22;63241;51.056;3.698;2023-04-24T01:19:15;10.20;99.90
70076;DHT22;63241;51.056;3.698;2023-04-24T01:21:44;10.20;99.90
70076;DHT22;63241;51.056;3.698;2023-04-24T01:24:13;10.20;99.90
70076;DHT22;63241;51.056;3.698;2023-04-24T01:26:41;10.20;99.90
70076;DHT22;63241;51.056;3.698;2023-04-24T01:29:09;10.20;99.90
70076;DHT22;63241;51.056;3.698;2023-04-24T01:31:37;10.20;99.90
70076;DHT22;63241;51.056;3.698;2023-04-24T01:34:05;10.20;99.90
70076;DHT22;63241;51.056;3.698;2023-04-24T01:36:33;10.20;99.90
70076;DHT22;63241;51.056;3.698;2023-04-24T01:39:02;10.20;99.90
70076;DHT22;63241;51.056;3.698;2023-04-24T01:41:30;10.20;99.90
70076;DHT22;63241;51.056;3.698;2023-04-24T01:43:58;10.10;99.90
70076;DHT22;63241;51.056;3.698;2023-04-24T01:46:26;10.10;99.90
70076;DHT22;63241;51.056;3.698;2023-04-24T01:48:54;10.00;99.90
70076;DHT22;63241;51.056;3.698;2023-04-24T01:51:22;10.00;99.90
70076;DHT22;63241;51.056;3.698;2023-04-24T01:53:50;10.00;99.90
70076;DHT22;63241;51.056;3.698;2023-04-24T01:56:19;10.10;99.90
70076;DHT22;63241;51.056;3.698;2023-04-24T01:58:48;10.00;99.90
70076;DHT22;63241;51.056;3.698;2023-04-24T02:01:20;10.00;99.90
70076;DHT22;63241;51.056;3.698;2023-04-24T02:03:48;10.00;99.90
70076;DHT22;63241;51.056;3.698;2023-04-24T02:06:16;10.00;99.90
70076;DHT22;63241;51.056;3.698;2023-04-24T02:08:43;10.00;99.90
70076;DHT22;63241;51.056;3.698;2023-04-24T02:11:11;10.00;99.90
70076;DHT22;63241;51.056;3.698;2023-04-24T02:13:39;10.00;99.90
70076;DHT22;63241;51.056;3.698;2023-04-24T02:16:07;10.00;99.90
70076;DHT22;63241;51.056;3.698;2023-04-24T02:18:34;9.90;99.90
70076;DHT22;63241;51.056;3.698;2023-04-24T02:21:02;9.80;99.90
70076;DHT22;63241;51.056;3.698;2023-04-24T02:23:30;9.90;99.90
70076;DHT22;63241;51.056;3.698;2023-04-24T02:25:57;9.80;99.90
70076;DHT22;63241;51.056;3.698;2023-04-24T02:28:25;9.90;99.90
70076;DHT22;63241;51.056;3.698;2023-04-24T02:30:53;9.90;99.90
70076;DHT22;63241;51.056;3.698;2023-04-24T02:33:20;9.90;99.90
70076;DHT22;63241;51.056;3.698;2023-04-24T02:35:48;9.90;99.90
70076;DHT22;63241;51.056;3.698;2023-04-24T02:38:16;9.90;99.90
70076;DHT22;63241;51.056;3.698;2023-04-24T02:40:44;10.00;99.90
70076;DHT22;63241;51.056;3.698;2023-04-24T02:43:11;10.00;99.90
70076;DHT22;63241;51.056;3.698;2023-04-24T02:45:39;10.10;99.90
70076;DHT22;63241;51.056;3.698;2023-04-24T02:48:06;10.10;99.90
70076;DHT22;63241;51.056;3.698;2023-04-24T02:50:34;10.10;99.90
70076;DHT22;63241;51.056;3.698;2023-04-24T02:53:02;10.10;99.90
70076;DHT22;63241;51.056;3.698;2023-04-24T02:55:30;10.10;99.90
70076;DHT22;63241;51.056;3.698;2023-04-24T02:57:57;10.10;99.90
70076;DHT22;63241;51.056;3.698;2023-04-24T03:00:25;10.10;99.90
70076;DHT22;63241;51.056;3.698;2023-04-24T03:02:53;10.10;99.90
70076;DHT22;63241;51.056;3.698;2023-04-24T03:05:21;10.10;99.90
70076;DHT22;63241;51.056;3.698;2023-04-24T03:07:48;10.10;99.90
70076;DHT22;63241;51.056;3.698;2023-04-24T03:10:16;10.10;99.90
70076;DHT22;63241;51.056;3.698;2023-04-24T03:12:44;10.10;99.90
70076;DHT22;63241;51.056;3.698;2023-04-24T03:15:11;10.10;99.90
70076;DHT22;63241;51.056;3.698;2023-04-24T03:17:39;10.10;99.90
70076;DHT22;63241;51.056;3.698;2023-04-24T03:20:07;10.10;99.90
70076;DHT22;63241;51.056;3.698;2023-04-24T03:22:35;10.10;99.90
70076;DHT22;63241;51.056;3.698;2023-04-24T03:25:03;10.20;99.90
70076;DHT22;63241;51.056;3.698;2023-04-24T03:27:31;10.30;99.90
70076;DHT22;63241;51.056;3.698;2023-04-24T03:29:59;10.10;99.90
70076;DHT22;63241;51.056;3.698;2023-04-24T03:32:27;10.10;99.90
70076;DHT22;63241;51.056;3.698;2023-04-24T03:34:55;10.10;99.90
70076;DHT22;63241;51.056;3.698;2023-04-24T03:37:22;10.00;99.90
70076;DHT22;63241;51.056;3.698;2023-04-24T03:39:50;10.10;99.90
70076;DHT22;63241;51.056;3.698;2023-04-24T03:42:18;10.00;99.90
70076;DHT22;63241;51.056;3.698;2023-04-24T03:44:46;9.90;99.90
70076;DHT22;63241;51.056;3.698;2023-04-24T03:47:13;9.90;99.90
70076;DHT22;63241;51.056;3.698;2023-04-24T03:49:41;9.90;99.90
70076;DHT22;63241;51.056;3.698;2023-04-24T03:52:09;9.90;99.90
70076;DHT22;63241;51.056;3.698;2023-04-24T03:54:37;9.90;99.90
70076;DHT22;63241;51.056;3.698;2023-04-24T03:57:04;9.90;99.90
70076;DHT22;63241;51.056;3.698;2023-04-24T03:59:32;9.90;99.90
70076;DHT22;63241;51.056;3.698;2023-04-24T04:02:00;9.80;99.90
70076;DHT22;63241;51.056;3.698;2023-04-24T04:04:27;9.80;99.90
70076;DHT22;63241;51.056;3.698;2023-04-24T04:06:55;9.80;99.90
70076;DHT22;63241;51.056;3.698;2023-04-24T04:09:22;9.80;99.90
70076;DHT22;63241;51.056;3.698;2023-04-24T04:11:50;9.70;99.90
70076;DHT22;63241;51.056;3.698;2023-04-24T04:14:18;9.70;99.90
70076;DHT22;63241;51.056;3.698;2023-04-24T04:16:45;9.70;99.90
70076;DHT22;63241;51.056;3.698;2023-04-24T04:19:13;9.70;99.90
70076;DHT22;63241;51.056;3.698;2023-04-24T04:21:41;9.70;99.90
70076;DHT22;63241;51.056;3.698;2023-04-24T04:24:08;9.60;99.90
70076;DHT22;63241;51.056;3.698;2023-04-24T04:26:36;9.70;99.90
70076;DHT22;63241;51.056;3.698;2023-04-24T04:29:04;9.70;99.90
70076;DHT22;63241;51.056;3.698;2023-04-24T04:31:33;9.70;99.90
70076;DHT22;63241;51.056;3.698;2023-04-24T04:34:00;9.80;99.90
70076;DHT22;63241;51.056;3.698;2023-04-24T04:36:29;9.70;99.90
70076;DHT22;63241;51.056;3.698;2023-04-24T04:38:56;9.70;99.90
70076;DHT22;63241;51.056;3.698;2023-04-24T04:41:25;9.70;99.90
70076;DHT22;63241;51.056;3.698;2023-04-24T04:43:53;9.70;99.90
70076;DHT22;63241;51.056;3.698;2023-04-24T04:46:21;9.70;99.90
70076;DHT22;63241;51.056;3.698;2023-04-24T04:48:50;9.70;99.90
70076;DHT22;63241;51.056;3.698;2023-04-24T04:51:18;9.80;99.90
70076;DHT22;63241;51.056;3.698;2023-04-24T04:53:46;9.70;99.90
70076;DHT22;63241;51.056;3.698;2023-04-24T04:56:13;9.80;99.90
70076;DHT22;63241;51.056;3.698;2023-04-24T04:58:41;9.70;99.90
70076;DHT22;63241;51.056;3.698;2023-04-24T05:01:09;9.70;99.90
70076;DHT22;63241;51.056;3.698;2023-04-24T05:03:37;9.70;99.90
70076;DHT22;63241;51.056;3.698;2023-04-24T05:06:05;9.60;99.90
70076;DHT22;63241;51.056;3.698;2023-04-24T05:08:32;9.60;99.90
70076;DHT22;63241;51.056;3.698;2023-04-24T05:11:00;9.70;99.90
70076;DHT22;63241;51.056;3.698;2023-04-24T05:13:28;9.70;99.90
70076;DHT22;63241;51.056;3.698;2023-04-24T05:15:56;9.70;99.90
70076;DHT22;63241;51.056;3.698;2023-04-24T05:18:24;9.70;99.90
70076;DHT22;63241;51.056;3.698;2023-04-24T05:20:52;9.70;99.90
70076;DHT22;63241;51.056;3.698;2023-04-24T05:23:20;9.70;99.90
70076;DHT22;63241;51.056;3.698;2023-04-24T05:25:47;9.70;99.90
70076;DHT22;63241;51.056;3.698;2023-04-24T05:28:15;9.70;99.90
70076;DHT22;63241;51.056;3.698;2023-04-24T05:30:43;9.60;99.90
70076;DHT22;63241;51.056;3.698;2023-04-24T05:33:11;9.70;99.90
70076;DHT22;63241;51.056;3.698;2023-04-24T05:35:41;9.70;99.90
70076;DHT22;63241;51.056;3.698;2023-04-24T05:38:10;9.60;99.90
70076;DHT22;63241;51.056;3.698;2023-04-24T05:40:38;9.60;99.90
70076;DHT22;63241;51.056;3.698;2023-04-24T05:43:06;9.60;99.90
70076;DHT22;63241;51.056;3.698;2023-04-24T05:45:33;9.60;99.90
70076;DHT22;63241;51.056;3.698;2023-04-24T05:48:02;9.60;99.90
70076;DHT22;63241;51.056;3.698;2023-04-24T05:50:31;9.60;99.90
70076;DHT22;63241;51.056;3.698;2023-04-24T05:52:58;9.70;99.90
70076;DHT22;63241;51.056;3.698;2023-04-24T05:55:28;9.80;99.90
70076;DHT22;63241;51.056;3.698;2023-04-24T05:57:56;9.70;99.90
70076;DHT22;63241;51.056;3.698;2023-04-24T06:00:24;9.80;99.90
70076;DHT22;63241;51.056;3.698;2023-04-24T06:02:52;9.80;99.90
70076;DHT22;63241;51.056;3.698;2023-04-24T06:05:20;9.80;99.90
70076;DHT22;63241;51.056;3.698;2023-04-24T06:07:48;9.80;99.90
70076;DHT22;63241;51.056;3.698;2023-04-24T06:10:16;9.90;99.90
70076;DHT22;63241;51.056;3.698;2023-04-24T06:12:44;9.80;99.90
70076;DHT22;63241;51.056;3.698;2023-04-24T06:15:12;10.00;99.90
70076;DHT22;63241;51.056;3.698;2023-04-24T06:17:39;10.10;99.90
70076;DHT22;63241;51.056;3.698;2023-04-24T06:20:07;10.20;99.90
70076;DHT22;63241;51.056;3.698;2023-04-24T06:22:35;10.30;99.90
70076;DHT22;63241;51.056;3.698;2023-04-24T06:25:03;10.40;99.90
70076;DHT22;63241;51.056;3.698;2023-04-24T06:27:31;10.50;99.90
70076;DHT22;63241;51.056;3.698;2023-04-24T06:30:02;10.60;99.90
70076;DHT22;63241;51.056;3.698;2023-04-24T06:32:28;10.90;99.90
70076;DHT22;63241;51.056;3.698;2023-04-24T06:34:57;11.50;99.90
70076;DHT22;63241;51.056;3.698;2023-04-24T06:37:25;11.80;99.90
70076;DHT22;63241;51.056;3.698;2023-04-24T06:39:53;11.70;99.90
70076;DHT22;63241;51.056;3.698;2023-04-24T06:42:20;11.70;99.90
70076;DHT22;63241;51.056;3.698;2023-04-24T06:44:48;11.70;99.90
70076;DHT22;63241;51.056;3.698;2023-04-24T06:47:16;11.60;99.90
70076;DHT22;63241;51.056;3.698;2023-04-24T06:49:45;11.80;99.90
70076;DHT22;63241;51.056;3.698;2023-04-24T06:52:12;12.10;99.90
70076;DHT22;63241;51.056;3.698;2023-04-24T06:54:41;12.40;99.90
70076;DHT22;63241;51.056;3.698;2023-04-24T06:57:09;12.90;99.90
70076;DHT22;63241;51.056;3.698;2023-04-24T06:59:37;13.40;99.90
70076;DHT22;63241;51.056;3.698;2023-04-24T07:02:05;13.60;99.90
70076;DHT22;63241;51.056;3.698;2023-04-24T07:04:32;13.70;99.90
70076;DHT22;63241;51.056;3.698;2023-04-24T07:07:01;14.00;99.90
70076;DHT22;63241;51.056;3.698;2023-04-24T07:09:29;14.10;99.90
70076;DHT22;63241;51.056;3.698;2023-04-24T07:11:57;13.70;99.90
70076;DHT22;63241;51.056;3.698;2023-04-24T07:14:25;13.30;99.90
70076;DHT22;63241;51.056;3.698;2023-04-24T07:16:52;13.00;99.90
70076;DHT22;63241;51.056;3.698;2023-04-24T07:19:20;12.60;99.90
70076;DHT22;63241;51.056;3.698;2023-04-24T07:21:48;12.30;99.90
70076;DHT22;63241;51.056;3.698;2023-04-24T07:24:16;12.30;99.90
70076;DHT22;63241;51.056;3.698;2023-04-24T07:26:43;12.40;99.90
70076;DHT22;63241;51.056;3.698;2023-04-24T07:29:13;12.40;99.90
70076;DHT22;63241;51.056;3.698;2023-04-24T07:31:41;12.60;99.90
70076;DHT22;63241;51.056;3.698;2023-04-24T07:34:08;12.50;99.90
70076;DHT22;63241;51.056;3.698;2023-04-24T07:36:36;12.50;99.90
70076;DHT22;63241;51.056;3.698;2023-04-24T07:39:06;12.40;99.90
70076;DHT22;63241;51.056;3.698;2023-04-24T07:41:34;12.20;99.90
70076;DHT22;63241;51.056;3.698;2023-04-24T07:44:02;12.00;99.90
70076;DHT22;63241;51.056;3.698;2023-04-24T07:46:30;11.80;99.90
70076;DHT22;63241;51.056;3.698;2023-04-24T07:48:58;11.70;99.90
70076;DHT22;63241;51.056;3.698;2023-04-24T07:51:27;11.80;99.90
70076;DHT22;63241;51.056;3.698;2023-04-24T07:53:55;12.10;99.90
70076;DHT22;63241;51.056;3.698;2023-04-24T07:56:23;12.30;99.90
70076;DHT22;63241;51.056;3.698;2023-04-24T07:58:51;12.50;99.90
70076;DHT22;63241;51.056;3.698;2023-04-24T08:01:19;14.20;99.90
70076;DHT22;63241;51.056;3.698;2023-04-24T08:03:47;17.50;99.90
70076;DHT22;63241;51.056;3.698;2023-04-24T08:06:14;20.90;99.90
70076;DHT22;63241;51.056;3.698;2023-04-24T08:08:42;24.40;99.90
70076;DHT22;63241;51.056;3.698;2023-04-24T08:11:10;26.60;99.30
70076;DHT22;63241;51.056;3.698;2023-04-24T08:13:37;26.10;94.70
70076;DHT22;63241;51.056;3.698;2023-04-24T08:16:05;25.80;93.10
70076;DHT22;63241;51.056;3.698;2023-04-24T08:18:33;24.60;94.50
70076;DHT22;63241;51.056;3.698;2023-04-24T08:21:02;23.10;92.20
70076;DHT22;63241;51.056;3.698;2023-04-24T08:23:30;22.60;95.50
70076;DHT22;63241;51.056;3.698;2023-04-24T08:25:58;24.00;95.80
70076;DHT22;63241;51.056;3.698;2023-04-24T08:28:25;24.60;88.90
70076;DHT22;63241;51.056;3.698;2023-04-24T08:30:53;25.30;86.90
70076;DHT22;63241;51.056;3.698;2023-04-24T08:33:22;27.40;80.20
70076;DHT22;63241;51.056;3.698;2023-04-24T08:35:50;28.60;69.60
70076;DHT22;63241;51.056;3.698;2023-04-24T08:38:18;29.20;59.80
70076;DHT22;63241;51.056;3.698;2023-04-24T08:40:46;28.30;59.60
70076;DHT22;63241;51.056;3.698;2023-04-24T08:43:16;27.80;62.00
70076;DHT22;63241;51.056;3.698;2023-04-24T08:45:43;26.40;62.00
70076;DHT22;63241;51.056;3.698;2023-04-24T08:48:12;24.80;61.80
70076;DHT22;63241;51.056;3.698;2023-04-24T08:50:40;23.50;68.80
70076;DHT22;63241;51.056;3.698;2023-04-24T08:53:09;22.20;71.50
70076;DHT22;63241;51.056;3.698;2023-04-24T08:55:38;20.80;73.30
70076;DHT22;63241;51.056;3.698;2023-04-24T08:58:06;19.70;85.00
70076;DHT22;63241;51.056;3.698;2023-04-24T09:00:34;19.00;91.30
70076;DHT22;63241;51.056;3.698;2023-04-24T09:03:02;18.40;93.80
70076;DHT22;63241;51.056;3.698;2023-04-24T09:05:32;17.80;95.30
70076;DHT22;63241;51.056;3.698;2023-04-24T09:08:02;17.60;97.60
70076;DHT22;63241;51.056;3.698;2023-04-24T09:10:31;17.40;98.90
70076;DHT22;63241;51.056;3.698;2023-04-24T09:12:59;17.10;99.90
70076;DHT22;63241;51.056;3.698;2023-04-24T09:15:29;17.00;99.90
70076;DHT22;63241;51.056;3.698;2023-04-24T09:17:57;16.90;99.90
70076;DHT22;63241;51.056;3.698;2023-04-24T09:20:24;16.60;99.90
70076;DHT22;63241;51.056;3.698;2023-04-24T09:22:54;17.30;99.90
70076;DHT22;63241;51.056;3.698;2023-04-24T09:25:22;17.60;99.90
70076;DHT22;63241;51.056;3.698;2023-04-24T09:27:53;17.40;99.90
70076;DHT22;63241;51.056;3.698;2023-04-24T09:30:21;17.30;99.90
70076;DHT22;63241;51.056;3.698;2023-04-24T09:32:49;17.30;99.30
70076;DHT22;63241;51.056;3.698;2023-04-24T09:35:18;17.70;99.90
70076;DHT22;63241;51.056;3.698;2023-04-24T09:37:47;18.40;99.90
70076;DHT22;63241;51.056;3.698;2023-04-24T09:40:20;18.70;97.40
70076;DHT22;63241;51.056;3.698;2023-04-24T09:42:55;19.70;92.90
70076;DHT22;63241;51.056;3.698;2023-04-24T09:45:35;20.10;97.30
70076;DHT22;63241;51.056;3.698;2023-04-24T09:48:04;20.40;92.40
70076;DHT22;63241;51.056;3.698;2023-04-24T09:50:32;20.10;92.30
70076;DHT22;63241;51.056;3.698;2023-04-24T09:53:05;20.10;92.30
70076;DHT22;63241;51.056;3.698;2023-04-24T09:55:44;20.10;91.40
70076;DHT22;63241;51.056;3.698;2023-04-24T09:58:11;20.10;84.70
70076;DHT22;63241;51.056;3.698;2023-04-24T10:00:39;19.90;90.30
70076;DHT22;63241;51.056;3.698;2023-04-24T10:03:07;19.60;91.70
70076;DHT22;63241;51.056;3.698;2023-04-24T10:05:36;19.20;90.30
70076;DHT22;63241;51.056;3.698;2023-04-24T10:08:09;20.20;93.80
70076;DHT22;63241;51.056;3.698;2023-04-24T10:10:44;20.80;86.00
70076;DHT22;63241;51.056;3.698;2023-04-24T10:13:09;20.90;79.30
70076;DHT22;63241;51.056;3.698;2023-04-24T10:15:38;20.70;82.90
70076;DHT22;63241;51.056;3.698;2023-04-24T10:18:08;20.50;86.30
70076;DHT22;63241;51.056;3.698;2023-04-24T10:20:37;20.50;86.70
70076;DHT22;63241;51.056;3.698;2023-04-24T10:23:05;20.00;83.60
70076;DHT22;63241;51.056;3.698;2023-04-24T10:25:34;19.80;82.20
70076;DHT22;63241;51.056;3.698;2023-04-24T10:28:03;19.90;81.20
70076;DHT22;63241;51.056;3.698;2023-04-24T10:30:33;20.10;84.10
70076;DHT22;63241;51.056;3.698;2023-04-24T10:33:06;20.50;81.20
70076;DHT22;63241;51.056;3.698;2023-04-24T10:35:42;20.30;72.80
70076;DHT22;63241;51.056;3.698;2023-04-24T10:38:15;20.00;70.90
70076;DHT22;63241;51.056;3.698;2023-04-24T10:40:43;20.10;76.30
70076;DHT22;63241;51.056;3.698;2023-04-24T10:43:13;20.00;77.40
70076;DHT22;63241;51.056;3.698;2023-04-24T10:45:59;19.80;75.60
70076;DHT22;63241;51.056;3.698;2023-04-24T10:48:14;19.80;73.70
70076;DHT22;63241;51.056;3.698;2023-04-24T10:50:45;19.70;74.10
70076;DHT22;63241;51.056;3.698;2023-04-24T10:53:18;19.50;72.70
70076;DHT22;63241;51.056;3.698;2023-04-24T11:15:18;24.00;61.70
70076;DHT22;63241;51.056;3.698;2023-04-24T11:17:46;26.00;55.40
70076;DHT22;63241;51.056;3.698;2023-04-24T11:20:18;26.10;53.00
70076;DHT22;63241;51.056;3.698;2023-04-24T11:22:48;26.20;48.30
70076;DHT22;63241;51.056;3.698;2023-04-24T11:25:15;26.00;50.10
70076;DHT22;63241;51.056;3.698;2023-04-24T11:27:44;26.20;48.40
70076;DHT22;63241;51.056;3.698;2023-04-24T11:30:17;25.80;44.00
70076;DHT22;63241;51.056;3.698;2023-04-24T11:32:46;24.90;47.90
70076;DHT22;63241;51.056;3.698;2023-04-24T11:35:17;24.20;48.50
70076;DHT22;63241;51.056;3.698;2023-04-24T11:37:50;23.50;51.00
70076;DHT22;63241;51.056;3.698;2023-04-24T11:51:03;23.40;50.40
70076;DHT22;63241;51.056;3.698;2023-04-24T11:53:31;23.10;51.20
70076;DHT22;63241;51.056;3.698;2023-04-24T11:56:03;22.80;50.60
70076;DHT22;63241;51.056;3.698;2023-04-24T11:58:38;22.30;48.50
70076;DHT22;63241;51.056;3.698;2023-04-24T12:01:06;22.50;51.10
70076;DHT22;63241;51.056;3.698;2023-04-24T12:03:34;22.70;51.60
70076;DHT22;63241;51.056;3.698;2023-04-24T12:06:05;23.10;50.00
70076;DHT22;63241;51.056;3.698;2023-04-24T12:08:34;22.90;49.50
70076;DHT22;63241;51.056;3.698;2023-04-24T12:11:04;23.10;50.50
70076;DHT22;63241;51.056;3.698;2023-04-24T12:13:35;22.90;49.10
70076;DHT22;63241;51.056;3.698;2023-04-24T12:16:03;22.30;50.20
70076;DHT22;63241;51.056;3.698;2023-04-24T12:18:32;21.70;49.50
70076;DHT22;63241;51.056;3.698;2023-04-24T12:21:18;21.30;50.40
70076;DHT22;63241;51.056;3.698;2023-04-24T12:23:47;20.80;50.30
70076;DHT22;63241;51.056;3.698;2023-04-24T12:26:19;20.40;52.50
70076;DHT22;63241;51.056;3.698;2023-04-24T12:28:50;20.70;53.00
70076;DHT22;63241;51.056;3.698;2023-04-24T12:31:17;21.30;52.40
70076;DHT22;63241;51.056;3.698;2023-04-24T12:33:46;21.10;48.40
70076;DHT22;63241;51.056;3.698;2023-04-24T12:36:14;20.90;50.60
70076;DHT22;63241;51.056;3.698;2023-04-24T12:38:43;21.00;50.70
70076;DHT22;63241;51.056;3.698;2023-04-24T12:41:15;20.80;50.30
70076;DHT22;63241;51.056;3.698;2023-04-24T12:43:52;21.00;50.00
70076;DHT22;63241;51.056;3.698;2023-04-24T12:46:21;20.80;51.30
70076;DHT22;63241;51.056;3.698;2023-04-24T12:48:48;21.30;50.70
70076;DHT22;63241;51.056;3.698;2023-04-24T12:51:16;21.80;50.90
70076;DHT22;63241;51.056;3.698;2023-04-24T12:53:44;21.80;47.70
70076;DHT22;63241;51.056;3.698;2023-04-24T12:56:12;21.70;48.10
70076;DHT22;63241;51.056;3.698;2023-04-24T12:58:39;21.40;49.40
70076;DHT22;63241;51.056;3.698;2023-04-24T13:01:07;21.50;48.30
70076;DHT22;63241;51.056;3.698;2023-04-24T13:03:35;22.60;49.10
70076;DHT22;63241;51.056;3.698;2023-04-24T13:06:02;23.90;48.00
70076;DHT22;63241;51.056;3.698;2023-04-24T13:08:30;24.60;46.80
70076;DHT22;63241;51.056;3.698;2023-04-24T13:10:58;25.40;47.20
70076;DHT22;63241;51.056;3.698;2023-04-24T13:13:25;26.30;43.80
70076;DHT22;63241;51.056;3.698;2023-04-24T13:15:53;26.50;45.30
70076;DHT22;63241;51.056;3.698;2023-04-24T13:18:21;26.70;44.70
70076;DHT22;63241;51.056;3.698;2023-04-24T13:20:48;27.10;50.80
70076;DHT22;63241;51.056;3.698;2023-04-24T13:23:16;26.30;39.80
70076;DHT22;63241;51.056;3.698;2023-04-24T13:25:44;26.80;44.40
70076;DHT22;63241;51.056;3.698;2023-04-24T13:28:12;27.40;44.70
70076;DHT22;63241;51.056;3.698;2023-04-24T13:30:39;27.20;39.20
70076;DHT22;63241;51.056;3.698;2023-04-24T13:33:07;27.20;45.20
70076;DHT22;63241;51.056;3.698;2023-04-24T13:35:35;27.60;43.80
70076;DHT22;63241;51.056;3.698;2023-04-24T13:38:02;27.10;40.40
70076;DHT22;63241;51.056;3.698;2023-04-24T13:40:32;27.40;45.10
70076;DHT22;63241;51.056;3.698;2023-04-24T13:43:00;28.10;41.60
70076;DHT22;63241;51.056;3.698;2023-04-24T13:45:28;27.90;39.30
70076;DHT22;63241;51.056;3.698;2023-04-24T13:47:56;27.70;41.00
70076;DHT22;63241;51.056;3.698;2023-04-24T13:50:23;27.50;46.80
70076;DHT22;63241;51.056;3.698;2023-04-24T13:52:52;27.70;49.50
70076;DHT22;63241;51.056;3.698;2023-04-24T13:55:20;27.50;44.10
70076;DHT22;63241;51.056;3.698;2023-04-24T13:57:48;26.30;40.20
70076;DHT22;63241;51.056;3.698;2023-04-24T14:00:17;25.90;43.60
70076;DHT22;63241;51.056;3.698;2023-04-24T14:02:44;25.50;43.20
70076;DHT22;63241;51.056;3.698;2023-04-24T14:05:13;24.80;40.90
70076;DHT22;63241;51.056;3.698;2023-04-24T14:07:43;23.90;43.00
70076;DHT22;63241;51.056;3.698;2023-04-24T14:10:11;22.80;42.20
70076;DHT22;63241;51.056;3.698;2023-04-24T14:12:39;21.70;44.30
70076;DHT22;63241;51.056;3.698;2023-04-24T14:15:07;21.00;46.40
70076;DHT22;63241;51.056;3.698;2023-04-24T14:17:35;20.90;50.20
70076;DHT22;63241;51.056;3.698;2023-04-24T14:20:04;20.80;49.60
70076;DHT22;63241;51.056;3.698;2023-04-24T14:22:31;20.50;48.20
70076;DHT22;63241;51.056;3.698;2023-04-24T14:24:59;20.20;49.30
70076;DHT22;63241;51.056;3.698;2023-04-24T14:27:27;20.20;50.00
70076;DHT22;63241;51.056;3.698;2023-04-24T14:29:54;19.90;47.80
70076;DHT22;63241;51.056;3.698;2023-04-24T14:32:22;19.50;49.70
70076;DHT22;63241;51.056;3.698;2023-04-24T14:34:50;19.10;50.20
70076;DHT22;63241;51.056;3.698;2023-04-24T14:37:18;19.00;52.10
70076;DHT22;63241;51.056;3.698;2023-04-24T14:39:45;19.20;51.40
70076;DHT22;63241;51.056;3.698;2023-04-24T14:42:13;19.30;50.00
70076;DHT22;63241;51.056;3.698;2023-04-24T14:44:41;19.60;51.50
70076;DHT22;63241;51.056;3.698;2023-04-24T14:47:08;19.80;50.40
70076;DHT22;63241;51.056;3.698;2023-04-24T14:49:36;19.70;50.10
70076;DHT22;63241;51.056;3.698;2023-04-24T14:52:03;19.60;49.70
70076;DHT22;63241;51.056;3.698;2023-04-24T14:54:31;19.50;50.40
70076;DHT22;63241;51.056;3.698;2023-04-24T14:56:59;19.40;50.20
70076;DHT22;63241;51.056;3.698;2023-04-24T14:59:28;19.40;50.90
70076;DHT22;63241;51.056;3.698;2023-04-24T15:01:55;19.20;50.10
70076;DHT22;63241;51.056;3.698;2023-04-24T15:04:28;19.20;51.40
70076;DHT22;63241;51.056;3.698;2023-04-24T15:06:57;19.40;50.40
70076;DHT22;63241;51.056;3.698;2023-04-24T15:09:24;19.40;49.60
70076;DHT22;63241;51.056;3.698;2023-04-24T15:11:53;19.40;50.10
70076;DHT22;63241;51.056;3.698;2023-04-24T15:14:21;19.30;51.10
70076;DHT22;63241;51.056;3.698;2023-04-24T15:16:49;19.30;51.30
70076;DHT22;63241;51.056;3.698;2023-04-24T15:19:16;19.40;51.30
70076;DHT22;63241;51.056;3.698;2023-04-24T15:21:44;19.40;50.60
70076;DHT22;63241;51.056;3.698;2023-04-24T15:24:12;19.30;49.70
70076;DHT22;63241;51.056;3.698;2023-04-24T15:26:39;19.10;49.50
70076;DHT22;63241;51.056;3.698;2023-04-24T15:29:07;19.00;50.60
70076;DHT22;63241;51.056;3.698;2023-04-24T15:31:35;18.90;49.70
70076;DHT22;63241;51.056;3.698;2023-04-24T15:34:04;18.90;50.20
70076;DHT22;63241;51.056;3.698;2023-04-24T15:36:32;18.90;49.70
70076;DHT22;63241;51.056;3.698;2023-04-24T15:39:05;18.80;50.20
70076;DHT22;63241;51.056;3.698;2023-04-24T15:41:30;18.80;51.00
70076;DHT22;63241;51.056;3.698;2023-04-24T15:43:58;18.80;49.50
70076;DHT22;63241;51.056;3.698;2023-04-24T15:46:26;18.70;50.80
70076;DHT22;63241;51.056;3.698;2023-04-24T15:48:54;18.80;51.30
70076;DHT22;63241;51.056;3.698;2023-04-24T15:51:21;18.80;51.30
70076;DHT22;63241;51.056;3.698;2023-04-24T15:53:49;18.90;52.00
70076;DHT22;63241;51.056;3.698;2023-04-24T15:56:16;18.90;50.70
70076;DHT22;63241;51.056;3.698;2023-04-24T15:58:44;19.00;50.10
70076;DHT22;63241;51.056;3.698;2023-04-24T16:01:12;19.10;50.00
70076;DHT22;63241;51.056;3.698;2023-04-24T16:03:39;18.90;49.80
70076;DHT22;63241;51.056;3.698;2023-04-24T16:06:07;18.50;50.30
70076;DHT22;63241;51.056;3.698;2023-04-24T16:08:35;18.40;52.50